Time;durP1;ratioP1;P1;durP2;ratioP2;P2;SDS_P1;SDS_P2;PMS_P1;PMS_P2;Temp;Humidity;BMP_temperature;BMP_pressure;BME280_temperature;BME280_humidity;BME280_pressure;Samples;Min_cycle;Max_cycle;Signal;HPM_P1;HPM_P2
2024/03/08 00:01:09;;;;;;;33.27;17.90;;;2.80;99.90;;;;;;5027254;28;20196;-61
2024/03/08 00:03:35;;;;;;;38.87;19.10;;;2.80;99.90;;;;;;5025423;28;20997;-61
2024/03/08 00:06:01;;;;;;;36.10;17.17;;;2.70;99.90;;;;;;5026614;28;20526;-61
2024/03/08 00:08:27;;;;;;;36.03;17.57;;;2.70;99.90;;;;;;5008526;28;20181;-61
2024/03/08 00:10:52;;;;;;;38.40;16.60;;;2.70;99.90;;;;;;5029629;28;20429;-62
2024/03/08 00:13:18;;;;;;;32.17;17.20;;;2.70;99.90;;;;;;5028273;28;20179;-61
2024/03/08 00:15:43;;;;;;;37.10;18.97;;;2.70;99.90;;;;;;5026790;28;20180;-61
2024/03/08 00:18:10;;;;;;;38.27;19.00;;;2.70;99.90;;;;;;5008665;28;20183;-61
2024/03/08 00:20:35;;;;;;;39.60;19.77;;;2.70;99.90;;;;;;5029150;28;20218;-61
2024/03/08 00:23:01;;;;;;;37.00;19.60;;;2.70;99.90;;;;;;5026915;28;20800;-61
2024/03/08 00:25:27;;;;;;;39.90;18.67;;;2.70;99.90;;;;;;5023961;28;20243;-60
2024/03/08 00:27:55;;;;;;;37.23;18.33;;;2.70;99.90;;;;;;5025552;28;20176;-61
2024/03/08 00:30:22;;;;;;;34.83;17.73;;;2.70;99.90;;;;;;5025944;28;21330;-61
2024/03/08 00:32:48;;;;;;;39.27;18.57;;;2.70;99.90;;;;;;5025490;28;20435;-62
2024/03/08 00:35:14;;;;;;;41.17;20.00;;;2.60;99.90;;;;;;5028893;28;20431;-61
2024/03/08 00:37:41;;;;;;;38.87;19.63;;;2.60;99.90;;;;;;5028169;28;20418;-61
2024/03/08 00:40:08;;;;;;;38.43;19.87;;;2.70;99.90;;;;;;5028432;28;20989;-62
2024/03/08 00:42:35;;;;;;;33.77;18.10;;;2.70;99.90;;;;;;5022007;28;20469;-61
2024/03/08 00:45:01;;;;;;;34.50;18.17;;;2.70;99.90;;;;;;5022371;28;20730;-61
2024/03/08 00:47:26;;;;;;;35.50;18.10;;;2.70;99.90;;;;;;5025922;28;20427;-61
2024/03/08 00:49:53;;;;;;;37.40;17.07;;;2.70;99.90;;;;;;5025083;28;20433;-61
2024/03/08 00:52:19;;;;;;;34.00;18.40;;;2.70;99.90;;;;;;5025057;28;20183;-61
2024/03/08 00:54:44;;;;;;;38.53;19.83;;;2.70;99.90;;;;;;5026656;28;20456;-61
2024/03/08 00:57:10;;;;;;;35.83;18.27;;;2.70;99.90;;;;;;5025779;28;20422;-61
2024/03/08 00:59:38;;;;;;;33.60;17.87;;;2.70;99.90;;;;;;5023728;28;20557;-61
2024/03/08 01:02:03;;;;;;;37.87;19.30;;;2.70;99.90;;;;;;5029203;28;20534;-61
2024/03/08 01:04:29;;;;;;;36.87;19.07;;;2.70;99.90;;;;;;5026972;28;20903;-61
2024/03/08 01:06:56;;;;;;;34.33;18.00;;;2.70;99.90;;;;;;5026286;28;21398;-60
2024/03/08 01:09:23;;;;;;;34.03;17.70;;;2.70;99.90;;;;;;5026934;28;20176;-61
2024/03/08 01:11:49;;;;;;;38.23;19.77;;;2.70;99.90;;;;;;5023391;28;20955;-61
2024/03/08 01:14:15;;;;;;;39.70;18.83;;;2.70;99.90;;;;;;5021689;28;20503;-61
2024/03/08 01:16:40;;;;;;;37.43;18.90;;;2.70;99.90;;;;;;5019386;28;20434;-61
2024/03/08 01:19:06;;;;;;;38.20;20.00;;;2.70;99.90;;;;;;5024946;28;20182;-61
2024/03/08 01:21:32;;;;;;;41.70;20.50;;;2.70;99.90;;;;;;5025512;28;20492;-61
2024/03/08 01:23:57;;;;;;;37.80;19.47;;;2.70;99.90;;;;;;5024175;28;20195;-61
2024/03/08 01:26:23;;;;;;;37.70;19.67;;;2.70;99.90;;;;;;5026723;28;20218;-62
2024/03/08 01:28:50;;;;;;;39.83;19.40;;;2.70;99.90;;;;;;5025564;28;20180;-61
2024/03/08 01:31:15;;;;;;;39.90;19.43;;;2.60;99.90;;;;;;5027226;28;20202;-61
2024/03/08 01:33:41;;;;;;;40.17;19.20;;;2.60;99.90;;;;;;5027427;28;21123;-61
2024/03/08 01:36:07;;;;;;;38.73;19.70;;;2.60;99.90;;;;;;5022545;28;20188;-61
2024/03/08 01:38:33;;;;;;;43.63;19.30;;;2.60;99.90;;;;;;5023678;28;21424;-61
2024/03/08 01:40:59;;;;;;;40.50;19.17;;;2.60;99.90;;;;;;5027058;28;20200;-61
2024/03/08 01:43:29;;;;;;;38.17;19.40;;;2.60;99.90;;;;;;5026303;28;20807;-61
2024/03/08 01:45:58;;;;;;;36.13;19.50;;;2.60;99.90;;;;;;5007203;28;20178;-61
2024/03/08 01:48:24;;;;;;;39.30;18.30;;;2.60;99.90;;;;;;5026266;28;20944;-61
2024/03/08 01:50:51;;;;;;;41.33;18.60;;;2.60;99.90;;;;;;5024705;28;20449;-62
2024/03/08 01:53:18;;;;;;;37.63;18.60;;;2.60;99.90;;;;;;5020768;28;20615;-61
2024/03/08 01:55:47;;;;;;;35.47;18.67;;;2.60;99.90;;;;;;5024728;28;21686;-61
2024/03/08 01:58:15;;;;;;;38.03;17.70;;;2.60;99.90;;;;;;5026225;28;20513;-61
2024/03/08 02:00:43;;;;;;;35.53;18.70;;;2.60;99.90;;;;;;5023506;28;20426;-61
2024/03/08 02:03:10;;;;;;;41.03;19.23;;;2.60;99.90;;;;;;5024026;28;20444;-61
2024/03/08 02:05:37;;;;;;;37.57;19.07;;;2.60;99.90;;;;;;5023306;28;20461;-62
2024/03/08 02:08:06;;;;;;;37.40;18.23;;;2.60;99.90;;;;;;5022859;28;20511;-59
2024/03/08 02:10:35;;;;;;;37.80;18.13;;;2.60;99.90;;;;;;5026422;28;20516;-61
2024/03/08 02:13:04;;;;;;;39.37;19.50;;;2.60;99.90;;;;;;5022645;28;20445;-61
2024/03/08 02:15:50;;;;;;;36.60;20.03;;;2.50;99.90;;;;;;5023419;28;20437;-60
2024/03/08 02:18:17;;;;;;;38.97;20.70;;;2.50;99.90;;;;;;5026473;28;20453;-59
2024/03/08 02:20:43;;;;;;;44.47;20.80;;;2.50;99.90;;;;;;5028088;28;20579;-59
2024/03/08 02:23:09;;;;;;;41.17;20.73;;;2.50;99.90;;;;;;5011081;28;20438;-61
2024/03/08 02:25:35;;;;;;;46.47;20.77;;;2.50;99.90;;;;;;5023049;28;21192;-61
2024/03/08 02:28:01;;;;;;;43.53;19.93;;;2.50;99.90;;;;;;5006423;28;20437;-59
2024/03/08 02:30:30;;;;;;;43.07;19.73;;;2.50;99.90;;;;;;5011182;28;20414;-59
2024/03/08 02:32:56;;;;;;;44.43;19.63;;;2.50;99.90;;;;;;5026145;28;20175;-59
2024/03/08 02:35:21;;;;;;;44.27;20.70;;;2.40;99.90;;;;;;5010078;28;20440;-60
2024/03/08 02:37:47;;;;;;;41.40;18.80;;;2.50;99.90;;;;;;5023385;28;21148;-59
2024/03/08 02:40:13;;;;;;;45.03;20.70;;;2.50;99.90;;;;;;5019077;28;20573;-60
2024/03/08 02:42:39;;;;;;;36.40;18.73;;;2.50;99.90;;;;;;5024932;28;20226;-59
2024/03/08 02:45:05;;;;;;;45.30;19.70;;;2.50;99.90;;;;;;5026053;28;20528;-60
2024/03/08 02:47:32;;;;;;;40.30;20.53;;;2.50;99.90;;;;;;5023121;28;20563;-59
2024/03/08 02:49:57;;;;;;;42.97;20.50;;;2.40;99.90;;;;;;5025552;28;20514;-61
2024/03/08 02:52:23;;;;;;;37.70;18.90;;;2.50;99.90;;;;;;5029440;28;20454;-61
2024/03/08 02:54:49;;;;;;;41.37;20.93;;;2.50;99.90;;;;;;5027461;28;20269;-61
2024/03/08 02:57:15;;;;;;;36.33;18.40;;;2.40;99.90;;;;;;5027255;28;20573;-61
2024/03/08 02:59:42;;;;;;;42.30;20.33;;;2.50;99.90;;;;;;5025165;28;20976;-59
2024/03/08 03:02:09;;;;;;;44.47;18.93;;;2.50;99.90;;;;;;5028699;28;20455;-59
2024/03/08 03:04:35;;;;;;;48.53;19.50;;;2.50;99.90;;;;;;5023692;28;20455;-59
2024/03/08 03:07:01;;;;;;;39.90;19.00;;;2.40;99.90;;;;;;5027109;28;20990;-60
2024/03/08 03:09:27;;;;;;;41.67;21.00;;;2.40;99.90;;;;;;5029517;28;20181;-60
2024/03/08 03:11:56;;;;;;;41.33;19.90;;;2.40;99.90;;;;;;5021136;28;20174;-60
2024/03/08 03:14:22;;;;;;;44.93;19.90;;;2.40;99.90;;;;;;5025078;28;20461;-59
2024/03/08 03:16:48;;;;;;;44.93;20.53;;;2.40;99.90;;;;;;5023303;28;20426;-60
2024/03/08 03:19:14;;;;;;;48.50;21.13;;;2.40;99.90;;;;;;5008660;28;20484;-60
2024/03/08 03:21:43;;;;;;;48.23;20.60;;;2.30;99.90;;;;;;5033000;28;20286;-60
2024/03/08 03:24:10;;;;;;;42.43;20.57;;;2.30;99.90;;;;;;5027329;28;20454;-59
2024/03/08 03:26:39;;;;;;;45.20;21.73;;;2.30;99.90;;;;;;5028670;28;20564;-60
2024/03/08 03:29:08;;;;;;;45.10;19.67;;;2.30;99.90;;;;;;5024087;28;20441;-60
2024/03/08 03:31:36;;;;;;;45.07;19.20;;;2.30;99.90;;;;;;5028930;28;20440;-60
2024/03/08 03:34:03;;;;;;;38.83;19.53;;;2.30;99.90;;;;;;5025785;28;20441;-59
2024/03/08 03:36:30;;;;;;;40.47;20.90;;;2.30;99.90;;;;;;5029504;28;20426;-60
2024/03/08 03:39:10;;;;;;;42.03;21.03;;;2.20;99.90;;;;;;5026738;28;20916;-60
2024/03/08 03:41:36;;;;;;;40.23;19.00;;;2.20;99.90;;;;;;5028201;28;20486;-60
2024/03/08 03:44:02;;;;;;;47.27;22.57;;;2.20;99.90;;;;;;5027847;28;20503;-60
2024/03/08 03:46:27;;;;;;;36.70;20.20;;;2.20;99.90;;;;;;5028964;28;20422;-60
2024/03/08 03:48:55;;;;;;;43.27;20.73;;;2.20;99.90;;;;;;5028358;28;20181;-60
2024/03/08 03:51:21;;;;;;;41.63;20.90;;;2.20;99.90;;;;;;5026744;28;20182;-60
2024/03/08 03:53:47;;;;;;;44.10;21.30;;;2.10;99.90;;;;;;5027307;28;21047;-59
2024/03/08 03:56:12;;;;;;;44.27;22.40;;;2.10;99.90;;;;;;5011335;28;20413;-61
2024/03/08 03:58:39;;;;;;;49.90;20.80;;;2.10;99.90;;;;;;5008848;28;20186;-60
2024/03/08 04:01:05;;;;;;;45.63;21.93;;;2.10;99.90;;;;;;5027117;28;20199;-60
2024/03/08 04:03:31;;;;;;;51.87;22.20;;;2.10;99.90;;;;;;5028975;28;20410;-60
2024/03/08 04:05:56;;;;;;;43.23;20.90;;;2.10;99.90;;;;;;5029764;28;20175;-59
2024/03/08 04:08:23;;;;;;;44.37;20.97;;;2.10;99.90;;;;;;5028207;28;20995;-60
2024/03/08 04:10:50;;;;;;;43.93;20.80;;;2.10;99.90;;;;;;5025788;28;20181;-59
2024/03/08 04:13:16;;;;;;;56.60;23.07;;;2.00;99.90;;;;;;5024679;28;20429;-60
2024/03/08 04:15:44;;;;;;;44.10;20.20;;;1.90;99.90;;;;;;5028274;28;20440;-60
2024/03/08 04:18:09;;;;;;;38.13;19.43;;;1.90;99.90;;;;;;5010790;28;20191;-60
2024/03/08 04:20:35;;;;;;;41.77;20.40;;;1.90;99.90;;;;;;5032344;28;20525;-60
2024/03/08 04:23:02;;;;;;;46.37;22.70;;;1.90;99.90;;;;;;5026850;28;20182;-60
2024/03/08 04:25:27;;;;;;;40.93;20.77;;;2.00;99.90;;;;;;5027371;28;20196;-60
2024/03/08 04:27:53;;;;;;;45.27;21.07;;;2.00;99.90;;;;;;5027812;28;20863;-60
2024/03/08 04:30:21;;;;;;;54.10;21.43;;;2.00;99.90;;;;;;5024964;28;20185;-60
2024/03/08 04:32:47;;;;;;;43.20;21.97;;;2.00;99.90;;;;;;5027190;28;20267;-60
2024/03/08 04:35:13;;;;;;;45.60;21.40;;;2.00;99.90;;;;;;5029152;28;20464;-60
2024/03/08 04:37:39;;;;;;;47.60;20.37;;;2.00;99.90;;;;;;5028536;28;20894;-60
2024/03/08 04:40:05;;;;;;;42.23;20.27;;;2.00;99.90;;;;;;5024590;28;20195;-60
2024/03/08 04:42:35;;;;;;;49.97;22.40;;;2.00;99.90;;;;;;5023001;28;20458;-60
2024/03/08 04:45:00;;;;;;;50.47;23.20;;;2.00;99.90;;;;;;5025021;28;20474;-60
2024/03/08 04:47:26;;;;;;;46.17;20.97;;;2.00;99.90;;;;;;5027425;28;20421;-60
2024/03/08 04:49:52;;;;;;;44.77;21.07;;;2.00;99.90;;;;;;5028427;28;20184;-60
2024/03/08 04:52:17;;;;;;;51.13;22.60;;;1.90;99.90;;;;;;5022164;28;20233;-60
2024/03/08 04:54:44;;;;;;;52.23;22.83;;;1.90;99.90;;;;;;5025119;28;20203;-59
2024/03/08 04:57:10;;;;;;;54.70;23.07;;;1.90;99.90;;;;;;5022338;28;20203;-62
2024/03/08 04:59:36;;;;;;;43.43;20.33;;;2.00;99.90;;;;;;5022388;28;20949;-61
2024/03/08 05:02:02;;;;;;;48.53;21.33;;;2.00;99.90;;;;;;5017084;28;20492;-62
2024/03/08 05:04:29;;;;;;;43.80;21.10;;;2.00;99.90;;;;;;5023817;28;20461;-62
2024/03/08 05:06:54;;;;;;;43.83;21.53;;;2.00;99.90;;;;;;5023781;28;20429;-62
2024/03/08 05:09:20;;;;;;;46.13;22.43;;;2.10;99.90;;;;;;5027252;28;20414;-61
2024/03/08 05:11:47;;;;;;;42.63;20.90;;;2.10;99.90;;;;;;5027777;28;21048;-60
2024/03/08 05:14:16;;;;;;;47.43;22.60;;;2.10;99.90;;;;;;5024348;28;20442;-61
2024/03/08 05:16:48;;;;;;;50.40;21.67;;;2.10;99.90;;;;;;5028601;28;20797;-60
2024/03/08 05:19:17;;;;;;;53.27;24.20;;;2.10;99.90;;;;;;5026983;28;20449;-61
2024/03/08 05:21:51;;;;;;;45.70;21.27;;;2.10;99.90;;;;;;5025628;28;20451;-60
2024/03/08 05:24:17;;;;;;;51.37;23.20;;;2.00;99.90;;;;;;5027646;28;20440;-62
2024/03/08 05:26:43;;;;;;;50.37;22.53;;;2.00;99.90;;;;;;5003978;28;20492;-62
2024/03/08 05:29:08;;;;;;;50.57;22.20;;;2.00;99.90;;;;;;5026138;28;20259;-60
2024/03/08 05:31:52;;;;;;;43.77;22.90;;;2.00;99.90;;;;;;5013796;28;20175;-58
2024/03/08 05:34:19;;;;;;;51.27;22.23;;;1.90;99.90;;;;;;5003447;28;20206;-61
2024/03/08 05:36:46;;;;;;;47.47;20.97;;;1.90;99.90;;;;;;5018191;28;20508;-61
2024/03/08 05:39:19;;;;;;;44.60;22.63;;;1.80;99.90;;;;;;5022105;28;20933;-61
2024/03/08 05:41:45;;;;;;;49.43;22.10;;;1.80;99.90;;;;;;5006910;28;20472;-61
2024/03/08 05:44:11;;;;;;;49.17;23.57;;;1.80;99.90;;;;;;5021739;28;20464;-61
2024/03/08 05:46:37;;;;;;;42.10;22.03;;;1.80;99.90;;;;;;5022140;28;20506;-62
2024/03/08 05:49:05;;;;;;;57.03;23.40;;;1.80;99.90;;;;;;5019739;28;20854;-61
2024/03/08 05:51:34;;;;;;;43.60;20.90;;;1.80;99.90;;;;;;5020971;28;20460;-61
2024/03/08 05:54:06;;;;;;;41.03;20.40;;;1.80;99.90;;;;;;5023191;28;20450;-61
2024/03/08 05:56:33;;;;;;;42.70;22.10;;;1.80;99.90;;;;;;5016575;28;20510;-61
2024/03/08 05:58:58;;;;;;;38.50;19.47;;;1.80;99.90;;;;;;5022771;28;20434;-61
2024/03/08 06:01:25;;;;;;;46.60;20.90;;;1.80;99.90;;;;;;5025486;28;20468;-62
2024/03/08 06:03:53;;;;;;;44.30;20.97;;;1.80;99.90;;;;;;5007968;28;20188;-60
2024/03/08 06:06:21;;;;;;;43.53;20.63;;;1.80;99.90;;;;;;5023199;28;20437;-60
2024/03/08 06:08:48;;;;;;;41.70;20.97;;;1.80;99.90;;;;;;5021407;28;20472;-61
2024/03/08 06:11:15;;;;;;;47.00;22.43;;;1.80;99.90;;;;;;5023586;28;20462;-61
2024/03/08 06:13:40;;;;;;;37.00;20.33;;;1.80;99.90;;;;;;5025571;28;21247;-61
2024/03/08 06:16:08;;;;;;;51.53;22.47;;;1.80;99.90;;;;;;5019899;28;20435;-61
2024/03/08 06:18:36;;;;;;;48.03;22.03;;;1.80;99.90;;;;;;5022411;28;20203;-60
2024/03/08 06:21:04;;;;;;;43.90;20.50;;;1.70;99.90;;;;;;5025051;28;20468;-61
2024/03/08 06:23:30;;;;;;;42.10;20.67;;;1.80;99.90;;;;;;5028108;28;20414;-61
2024/03/08 06:25:57;;;;;;;47.80;20.07;;;1.80;99.90;;;;;;5026819;28;20444;-61
2024/03/08 06:28:23;;;;;;;41.63;19.47;;;1.80;99.90;;;;;;5024468;28;20949;-61
2024/03/08 06:30:50;;;;;;;42.57;20.20;;;1.70;99.90;;;;;;5027769;28;20425;-61
2024/03/08 06:33:16;;;;;;;45.07;22.00;;;1.70;99.90;;;;;;5028431;28;20177;-61
2024/03/08 06:35:41;;;;;;;47.87;22.30;;;1.70;99.90;;;;;;5028724;28;20822;-61
2024/03/08 06:38:07;;;;;;;50.33;21.90;;;1.80;99.90;;;;;;5025520;28;20164;-62
2024/03/08 06:40:33;;;;;;;45.10;20.80;;;1.80;99.90;;;;;;5028146;28;20191;-61
2024/03/08 06:42:58;;;;;;;45.00;20.63;;;1.80;99.90;;;;;;5026418;28;20203;-61
2024/03/08 06:45:25;;;;;;;57.43;21.57;;;1.80;99.90;;;;;;5028250;28;20654;-61
2024/03/08 06:47:51;;;;;;;52.57;21.77;;;1.80;99.90;;;;;;5025471;28;20184;-61
2024/03/08 06:50:17;;;;;;;44.67;20.33;;;1.80;99.90;;;;;;5024394;28;20476;-61
2024/03/08 06:52:44;;;;;;;47.97;20.37;;;1.80;99.90;;;;;;5026908;28;20240;-60
2024/03/08 06:55:12;;;;;;;41.60;19.70;;;1.80;99.90;;;;;;5025398;28;20766;-61
2024/03/08 06:57:40;;;;;;;40.13;18.40;;;1.80;99.90;;;;;;5027383;28;20465;-61
2024/03/08 07:00:09;;;;;;;45.33;21.70;;;1.90;99.90;;;;;;5028223;28;20812;-61
2024/03/08 07:02:35;;;;;;;39.83;19.57;;;1.90;99.90;;;;;;5027023;28;20465;-61
2024/03/08 07:05:01;;;;;;;38.90;18.80;;;1.90;99.90;;;;;;5027042;28;20453;-60
2024/03/08 07:07:27;;;;;;;36.10;17.40;;;1.90;99.90;;;;;;5024780;28;20180;-61
2024/03/08 07:09:53;;;;;;;43.03;18.60;;;1.90;99.90;;;;;;5029490;28;20932;-61
2024/03/08 07:12:20;;;;;;;35.70;17.00;;;1.90;99.90;;;;;;5026747;28;20267;-61
2024/03/08 07:14:46;;;;;;;44.40;20.27;;;2.00;99.90;;;;;;5027024;28;20706;-61
2024/03/08 07:17:12;;;;;;;39.30;18.83;;;2.00;99.90;;;;;;5020727;28;20422;-61
2024/03/08 07:19:38;;;;;;;49.27;19.10;;;2.00;99.90;;;;;;5027147;28;20175;-61
2024/03/08 07:22:08;;;;;;;39.47;17.20;;;2.00;99.90;;;;;;5028486;28;20447;-61
2024/03/08 07:27:05;;;;;;;37.97;15.80;;;2.10;99.90;;;;;;5027346;28;20417;-61
2024/03/08 07:29:34;;;;;;;35.60;16.13;;;2.10;99.90;;;;;;5025756;28;20944;-61
2024/03/08 07:32:19;;;;;;;;;;;;;;;;;;;;;
2024/03/08 07:34:39;;;;;;;33.83;16.07;;;2.20;99.90;;;;;;5030324;28;21106;-61
2024/03/08 07:37:05;;;;;;;40.63;18.30;;;2.20;99.90;;;;;;5024840;28;20427;-61
2024/03/08 07:39:31;;;;;;;46.23;18.30;;;2.20;99.90;;;;;;5012186;28;20784;-61
2024/03/08 07:41:57;;;;;;;38.57;17.67;;;2.20;99.90;;;;;;5028488;28;20453;-61
2024/03/08 07:44:23;;;;;;;34.63;16.70;;;2.20;99.90;;;;;;5026399;28;20477;-61
2024/03/08 07:46:49;;;;;;;36.83;16.00;;;2.20;99.90;;;;;;5024475;28;20175;-61
2024/03/08 07:49:14;;;;;;;32.97;15.80;;;2.10;99.90;;;;;;5028061;28;20411;-61
2024/03/08 07:51:41;;;;;;;35.13;17.17;;;2.10;99.90;;;;;;5025766;28;20207;-61
2024/03/08 07:54:09;;;;;;;36.57;16.93;;;2.20;99.90;;;;;;5026498;28;20287;-61
2024/03/08 07:56:36;;;;;;;41.57;17.30;;;2.10;99.90;;;;;;5023819;28;20523;-61
2024/03/08 07:59:03;;;;;;;32.57;16.07;;;2.10;99.90;;;;;;5026720;28;20438;-61
2024/03/08 08:01:30;;;;;;;34.97;16.93;;;2.20;99.90;;;;;;5026158;28;20539;-61
2024/03/08 08:03:56;;;;;;;34.03;15.60;;;2.20;99.90;;;;;;5024713;28;20529;-60
2024/03/08 08:06:22;;;;;;;34.37;16.93;;;2.20;99.90;;;;;;5025208;28;20436;-61
2024/03/08 08:08:48;;;;;;;35.40;16.73;;;2.30;99.90;;;;;;5026136;28;20419;-61
2024/03/08 08:11:16;;;;;;;34.37;16.40;;;2.20;99.90;;;;;;5028270;28;20219;-60
2024/03/08 08:13:43;;;;;;;30.20;14.73;;;2.20;99.90;;;;;;5028483;28;20434;-61
2024/03/08 08:16:10;;;;;;;32.23;15.37;;;2.30;99.90;;;;;;5025519;28;21215;-61
2024/03/08 08:18:36;;;;;;;28.63;13.23;;;2.30;99.90;;;;;;5024433;28;20529;-61
2024/03/08 08:21:03;;;;;;;31.10;15.23;;;2.30;99.90;;;;;;5026265;28;20468;-61
2024/03/08 08:23:29;;;;;;;29.77;13.93;;;2.30;99.90;;;;;;5027386;28;20426;-61
2024/03/08 08:25:55;;;;;;;24.73;13.13;;;2.30;99.90;;;;;;5028204;28;20422;-61
2024/03/08 08:28:21;;;;;;;33.10;14.53;;;2.30;99.90;;;;;;5021952;28;20433;-61
2024/03/08 08:30:48;;;;;;;25.37;12.97;;;2.40;99.90;;;;;;5026364;28;20684;-61
2024/03/08 08:33:14;;;;;;;23.60;12.47;;;2.40;99.90;;;;;;5025070;28;20172;-62
2024/03/08 08:35:40;;;;;;;28.20;13.43;;;2.40;99.90;;;;;;5024649;28;20473;-60
2024/03/08 08:38:07;;;;;;;27.60;13.80;;;2.50;99.90;;;;;;5006675;28;20431;-61
2024/03/08 08:40:33;;;;;;;27.70;13.07;;;2.50;99.90;;;;;;5022654;28;20538;-61
2024/03/08 08:42:59;;;;;;;23.77;12.77;;;2.50;99.90;;;;;;5025002;28;20519;-61
2024/03/08 08:45:25;;;;;;;23.47;12.90;;;2.60;99.90;;;;;;5027508;28;20878;-61
2024/03/08 08:47:51;;;;;;;29.37;13.63;;;2.60;99.90;;;;;;5024854;28;20445;-61
2024/03/08 08:50:22;;;;;;;23.20;12.00;;;2.60;99.90;;;;;;5020157;28;20434;-61
2024/03/08 08:52:49;;;;;;;25.80;12.50;;;2.60;99.90;;;;;;5026121;28;20446;-61
2024/03/08 08:55:15;;;;;;;24.37;12.83;;;2.60;99.90;;;;;;5024929;28;20874;-61
2024/03/08 08:57:41;;;;;;;24.53;12.77;;;2.60;99.90;;;;;;5025611;28;20469;-61
2024/03/08 09:00:08;;;;;;;27.77;12.50;;;2.60;99.90;;;;;;5023476;28;20440;-61
2024/03/08 09:02:34;;;;;;;23.87;12.00;;;2.60;99.90;;;;;;5007885;28;21046;-61
2024/03/08 09:05:01;;;;;;;23.80;12.47;;;2.70;99.90;;;;;;5008606;28;20457;-61
2024/03/08 09:07:27;;;;;;;22.10;12.67;;;2.70;99.90;;;;;;5025871;28;20256;-61
2024/03/08 09:09:57;;;;;;;30.13;14.23;;;2.70;99.90;;;;;;5025010;28;20434;-61
2024/03/08 09:12:23;;;;;;;35.63;13.90;;;2.70;99.90;;;;;;5021437;28;20834;-61
2024/03/08 09:14:49;;;;;;;26.23;12.57;;;2.70;99.90;;;;;;5026692;28;20644;-61
2024/03/08 09:17:17;;;;;;;27.50;14.20;;;2.70;99.90;;;;;;5027246;28;20994;-61
2024/03/08 09:19:43;;;;;;;21.43;12.93;;;2.80;99.90;;;;;;5028388;28;20463;-62
2024/03/08 09:22:09;;;;;;;26.03;13.10;;;2.80;99.90;;;;;;5027608;28;20499;-61
2024/03/08 09:24:34;;;;;;;27.63;12.67;;;2.90;99.90;;;;;;5026621;28;20454;-61
2024/03/08 09:27:00;;;;;;;28.60;13.20;;;2.90;99.90;;;;;;5006102;28;20797;-60
2024/03/08 09:29:26;;;;;;;29.03;13.73;;;2.90;99.90;;;;;;5026616;28;20207;-61
2024/03/08 09:31:51;;;;;;;26.33;13.23;;;3.00;99.90;;;;;;5024023;28;20318;-61
2024/03/08 09:34:18;;;;;;;26.90;14.23;;;3.00;99.90;;;;;;5023054;28;20207;-61
2024/03/08 09:36:44;;;;;;;26.57;14.77;;;3.10;99.90;;;;;;5023231;28;20215;-61
2024/03/08 09:39:16;;;;;;;28.27;13.90;;;3.20;99.90;;;;;;5008219;28;20790;-61
2024/03/08 09:41:43;;;;;;;30.27;14.23;;;3.20;99.90;;;;;;5026748;28;20454;-61
2024/03/08 09:44:09;;;;;;;26.23;13.30;;;3.20;99.90;;;;;;5024375;28;20984;-60
2024/03/08 09:46:35;;;;;;;26.80;13.57;;;3.20;99.90;;;;;;5023178;28;20526;-61
2024/03/08 09:49:01;;;;;;;23.90;12.47;;;3.20;99.90;;;;;;5005046;28;20704;-60
2024/03/08 09:51:33;;;;;;;28.17;13.03;;;3.20;99.90;;;;;;5008462;28;20422;-61
2024/03/08 09:53:59;;;;;;;26.13;12.57;;;3.20;99.90;;;;;;5021143;28;20483;-60
2024/03/08 09:56:27;;;;;;;30.17;14.30;;;3.10;99.90;;;;;;5019964;28;20482;-61
2024/03/08 09:59:32;;;;;;;26.83;13.80;;;3.10;99.90;;;;;;5025671;28;20178;-60
2024/03/08 10:01:56;;;;;;;26.23;12.27;;;3.10;99.90;;;;;;5021569;28;20465;-61
2024/03/08 10:04:22;;;;;;;31.43;13.83;;;3.20;99.90;;;;;;5024979;28;20533;-61
2024/03/08 10:06:48;;;;;;;22.37;12.07;;;3.20;99.90;;;;;;5025975;28;20945;-61
2024/03/08 10:09:15;;;;;;;22.17;13.93;;;3.30;99.90;;;;;;5008961;28;20461;-61
2024/03/08 10:11:41;;;;;;;26.80;13.20;;;3.30;99.90;;;;;;5008778;28;20792;-61
2024/03/08 10:14:08;;;;;;;23.07;12.57;;;3.40;99.90;;;;;;5025361;28;20442;-62
2024/03/08 10:16:35;;;;;;;26.00;12.53;;;3.40;99.90;;;;;;5025219;28;20334;-63
2024/03/08 10:19:00;;;;;;;26.40;13.17;;;3.40;99.90;;;;;;5022152;28;20413;-60
2024/03/08 10:21:27;;;;;;;28.70;12.73;;;3.50;99.90;;;;;;5021957;28;21013;-61
2024/03/08 10:23:53;;;;;;;23.10;12.20;;;3.50;99.90;;;;;;5025727;28;20237;-62
2024/03/08 10:26:21;;;;;;;28.40;14.10;;;3.50;99.90;;;;;;5027434;28;20550;-61
2024/03/08 10:28:52;;;;;;;26.40;12.80;;;3.50;99.90;;;;;;5028114;28;20517;-61
2024/03/08 10:31:19;;;;;;;23.93;12.90;;;3.50;99.90;;;;;;5025010;28;20431;-62
2024/03/08 10:33:45;;;;;;;28.27;13.13;;;3.60;99.90;;;;;;5010748;28;20442;-61
2024/03/08 10:36:13;;;;;;;27.13;12.70;;;3.60;99.90;;;;;;5027795;28;20448;-61
2024/03/08 10:38:49;;;;;;;21.33;11.83;;;3.60;99.90;;;;;;5023102;28;20426;-60
2024/03/08 10:41:16;;;;;;;26.33;13.03;;;3.60;99.90;;;;;;5023204;28;20461;-61
2024/03/08 10:44:07;;;;;;;24.97;12.10;;;3.70;99.90;;;;;;5006853;28;20457;-61
2024/03/08 10:46:56;;;;;;;26.47;13.80;;;3.70;99.90;;;;;;5025407;28;20417;-61
2024/03/08 10:49:29;;;;;;;30.33;14.07;;;3.80;99.90;;;;;;5027661;28;20424;-61
2024/03/08 10:51:57;;;;;;;23.77;13.57;;;3.90;99.90;;;;;;5025064;28;20442;-61
2024/03/08 10:54:25;;;;;;;29.73;13.97;;;4.00;99.90;;;;;;5024258;28;20466;-61
2024/03/08 10:56:51;;;;;;;25.17;13.00;;;4.00;99.90;;;;;;5026933;28;20539;-61
2024/03/08 10:59:18;;;;;;;32.40;12.87;;;4.10;99.10;;;;;;5020911;28;20446;-61
2024/03/08 11:01:44;;;;;;;25.03;13.43;;;4.10;98.80;;;;;;5025580;28;20462;-62
2024/03/08 11:04:10;;;;;;;26.40;14.67;;;4.10;98.60;;;;;;5026482;28;20449;-61
2024/03/08 11:06:39;;;;;;;28.40;13.80;;;4.10;98.60;;;;;;5021482;28;20978;-62
2024/03/08 11:09:30;;;;;;;23.33;13.20;;;4.20;98.50;;;;;;5029322;28;20179;-61
2024/03/08 11:12:32;;;;;;;26.97;14.10;;;4.20;97.70;;;;;;5026246;28;20505;-61
2024/03/08 11:15:04;;;;;;;24.80;13.10;;;4.30;96.20;;;;;;5028950;28;20465;-62
2024/03/08 11:17:32;;;;;;;28.00;14.27;;;4.40;95.30;;;;;;5029502;28;21116;-61
2024/03/08 11:20:01;;;;;;;27.20;14.60;;;4.50;94.40;;;;;;5026537;28;21110;-62
2024/03/08 11:22:31;;;;;;;26.20;14.20;;;4.50;94.50;;;;;;5011309;28;20603;-61
2024/03/08 11:25:02;;;;;;;30.33;14.50;;;4.60;94.30;;;;;;5028537;28;20533;-61
2024/03/08 11:27:31;;;;;;;25.10;13.90;;;4.70;94.30;;;;;;5016818;28;20433;-58
2024/03/08 11:30:27;;;;;;;29.87;14.53;;;4.80;94.00;;;;;;5023318;28;20843;-61
2024/03/08 11:32:52;;;;;;;26.47;13.93;;;5.00;92.00;;;;;;5026082;28;20461;-61
2024/03/08 11:35:20;;;;;;;25.20;13.00;;;5.10;89.30;;;;;;5028647;28;21330;-61
2024/03/08 11:37:47;;;;;;;30.43;14.50;;;5.10;88.30;;;;;;5026942;28;20180;-61
2024/03/08 11:40:15;;;;;;;26.83;14.00;;;5.30;89.30;;;;;;5031870;28;20442;-61
2024/03/08 11:42:46;;;;;;;28.83;14.90;;;5.40;88.70;;;;;;5029846;28;20466;-61
2024/03/08 11:45:13;;;;;;;26.00;14.60;;;5.40;86.50;;;;;;5028588;28;20516;-61
2024/03/08 11:47:41;;;;;;;30.70;14.97;;;5.30;84.20;;;;;;5026745;28;20437;-61
2024/03/08 11:50:10;;;;;;;30.43;15.00;;;5.30;85.30;;;;;;5029266;28;20510;-61
2024/03/08 11:52:36;;;;;;;32.30;16.07;;;5.30;86.80;;;;;;5028278;28;20860;-61
2024/03/08 11:55:04;;;;;;;31.00;15.87;;;5.40;87.40;;;;;;5027636;28;20534;-61
2024/03/08 11:57:31;;;;;;;26.00;14.63;;;5.50;87.40;;;;;;5023904;28;20263;-61
2024/03/08 11:59:58;;;;;;;31.63;15.03;;;5.60;84.30;;;;;;5009956;28;20431;-61
2024/03/08 12:02:24;;;;;;;26.67;14.20;;;5.60;81.70;;;;;;5025437;28;20542;-62
2024/03/08 12:04:59;;;;;;;30.73;16.23;;;5.60;81.40;;;;;;5027615;28;20523;-61
2024/03/08 12:07:25;;;;;;;30.80;15.53;;;5.60;81.50;;;;;;5021296;28;20570;-61
2024/03/08 12:10:22;;;;;;;28.17;15.50;;;5.60;83.00;;;;;;5025903;28;20435;-61
2024/03/08 12:13:02;;;;;;;25.07;13.83;;;5.70;81.30;;;;;;5027218;28;20659;-60
2024/03/08 12:15:29;;;;;;;28.63;14.73;;;5.70;80.80;;;;;;5025243;28;20911;-61
2024/03/08 12:17:55;;;;;;;25.33;13.13;;;5.80;82.60;;;;;;5020732;28;20553;-60
2024/03/08 12:20:26;;;;;;;25.53;13.63;;;5.90;81.20;;;;;;5026284;28;20426;-61
2024/03/08 12:22:53;;;;;;;24.77;14.50;;;5.90;79.20;;;;;;5028617;28;20462;-61
2024/03/08 12:25:20;;;;;;;28.53;14.80;;;5.90;79.30;;;;;;5024647;28;20533;-61
2024/03/08 12:27:46;;;;;;;28.53;15.27;;;6.00;78.60;;;;;;5024119;28;20434;-62
2024/03/08 12:30:23;;;;;;;29.00;15.23;;;6.00;79.10;;;;;;5021467;28;20434;-62
2024/03/08 12:32:48;;;;;;;23.50;14.00;;;6.40;81.80;;;;;;5025083;28;20488;-61
2024/03/08 12:35:14;;;;;;;27.03;14.80;;;7.10;85.30;;;;;;5024481;28;20464;-62
2024/03/08 12:37:41;;;;;;;26.83;14.30;;;7.60;77.00;;;;;;5022580;28;20180;-61
2024/03/08 12:40:10;;;;;;;25.80;14.57;;;7.90;73.00;;;;;;5023896;28;20202;-60
2024/03/08 12:42:35;;;;;;;22.00;12.97;;;7.90;70.00;;;;;;5023074;28;20494;-62